Terminal Aerodrome Forecast
Issued by NWS

Home | Current Version | Previous Version | Graphics & Text | Print | Product List | Glossary On
Versions: 1 2 3 4 5 6 7 8 9 10 11 12 13 14 15 16 17
000
FTUS43 KGRB 170800 AAA
TAFMTW
TAF AMD
KMTW 170827Z 1708/1806 19005KT 5SM BR SCT002
     FM171200 21005KT P6SM SCT010 BKN060
     FM171500 31012G20KT P6SM BKN018 OVC025
     FM180000 33015G24KT P6SM BKN025 OVC040=

USA.gov is the U.S. government's official web portal to all federal, state and local government web resources and services.